PWSweather.com
Personal Weather Stations
Station Observations
MARICOPA
Cobblestone Farms, Maricopa, AZ 85139

Cobblestone FarmsMaricopa, AZ 85139

Lat: 33.076, Lon: -112.0445

Elevation: 1148

Station Type: LaCrosse 2310/15

http://weather.azkiwis.net

Latest ConditionsUpdated 11:15:00 AM MST Monday, May 30, 2016
Currently Today's Max Today's Min Today's Average
Temperature 88.3°F31.3°C 88.3°F31.3°C 57.6°F14.2°C 69.2°F20.7°C
Dew Point 31.2°F-0.4°C 31.2°F-0.4°C 20.9°F-6.2°C 26.8°F-2.9°C
Winds 1.2 mph WSW1.9 kmh WSW 4.6 mph NNW7.4 kmh NNW - 0.4 mph 0.6 kmh
Wind Gusts 2.3 mph3.7 kmh 6.9 mph11.1 kmh - -
Humidity 13% 31% 10% 22%
Pressure 29.90 in1012.5 mb 29.93 in1013.5 mb 29.86 in1011.2 mb -
Hour Temp Dew Point Humidity Winds Wind Gusts Pressure Precip Precip Rate Daily Precip Total
11:15 AM 88.3°F31.3°C 31.2°F-0.4°C 13% 1.2 mph WSW1.9 kmh WSW 2.3 mph3.7 kmh 29.90 in1012.5 mb - 0.00 in0.0 mm 0.00 in0.0 mm
11:00 AM 86.9°F30.5°C 26.1°F-3.3°C 11% 1.2 mph WSW1.9 kmh WSW -- 29.90 in1012.5 mb - 0.00 in0.0 mm 0.00 in0.0 mm
10:45 AM 86.4°F30.2°C 27.7°F-2.4°C 12% 4.6 mph NNW7.4 kmh NNW 5.8 mph9.3 kmh 29.91 in1012.9 mb - 0.00 in0.0 mm 0.00 in0.0 mm
10:30 AM 85.1°F29.5°C 24.7°F-4.1°C 11% 1.2 mph NW1.9 kmh NW 3.5 mph5.6 kmh 29.91 in1012.9 mb - 0.00 in0.0 mm 0.00 in0.0 mm
10:15 AM 83.9°F28.8°C 21.5°F-5.8°C 10% Calm Calm -- 29.92 in1013.2 mb - 0.00 in0.0 mm 0.00 in0.0 mm
10:00 AM 83.1°F28.4°C 20.9°F-6.2°C 10% Calm Calm 6.9 mph11.1 kmh 29.92 in1013.2 mb - 0.00 in0.0 mm 0.00 in0.0 mm
09:45 AM 82.0°F27.8°C 22.3°F-5.4°C 11% 2.3 mph NW3.7 kmh NW -- 29.91 in1012.9 mb - 0.00 in0.0 mm 0.00 in0.0 mm
09:30 AM 80.4°F26.9°C 21.1°F-6.1°C 11% 2.3 mph N3.7 kmh N 3.5 mph5.6 kmh 29.92 in1013.2 mb - 0.00 in0.0 mm 0.00 in0.0 mm
09:15 AM 78.7°F25.9°C 21.8°F-5.7°C 12% 1.2 mph NW1.9 kmh NW 1.2 mph1.9 kmh 29.92 in1013.2 mb - 0.00 in0.0 mm 0.00 in0.0 mm
09:00 AM 77.1°F25.1°C 24.2°F-4.3°C 14% Calm Calm 3.5 mph5.6 kmh 29.93 in1013.5 mb - 0.00 in0.0 mm 0.00 in0.0 mm
08:45 AM 75.4°F24.1°C 24.5°F-4.2°C 15% 1.2 mph NW1.9 kmh NW 2.3 mph3.7 kmh 29.92 in1013.2 mb - 0.00 in0.0 mm 0.00 in0.0 mm
08:30 AM 73.4°F23.0°C 27.3°F-2.6°C 18% Calm Calm -- 29.92 in1013.2 mb - 0.00 in0.0 mm 0.00 in0.0 mm
08:15 AM 71.5°F21.9°C 25.7°F-3.5°C 18% Calm Calm -- 29.92 in1013.2 mb - 0.00 in0.0 mm 0.00 in0.0 mm
08:00 AM 69.5°F20.8°C 26.6°F-3.0°C 20% Calm Calm -- 29.93 in1013.5 mb - 0.00 in0.0 mm 0.00 in0.0 mm
07:45 AM 67.6°F19.8°C 26.2°F-3.2°C 21% Calm Calm -- 29.92 in1013.2 mb - 0.00 in0.0 mm 0.00 in0.0 mm
07:30 AM 65.3°F18.5°C 27.6°F-2.4°C 24% Calm Calm -- 29.92 in1013.2 mb - 0.00 in0.0 mm 0.00 in0.0 mm
07:15 AM 63.4°F17.4°C 26.9°F-2.8°C 25% Calm Calm 1.2 mph1.9 kmh 29.92 in1013.2 mb - 0.00 in0.0 mm 0.00 in0.0 mm
07:00 AM 61.5°F16.4°C 27.2°F-2.7°C 27% Calm Calm -- 29.91 in1012.9 mb - 0.00 in0.0 mm 0.00 in0.0 mm
06:45 AM 60.0°F15.6°C 27.6°F-2.4°C 29% Calm Calm -- 29.91 in1012.9 mb - 0.00 in0.0 mm 0.00 in0.0 mm
06:30 AM 58.8°F14.9°C 27.4°F-2.6°C 30% Calm Calm -- 29.92 in1013.2 mb - 0.00 in0.0 mm 0.00 in0.0 mm
06:15 AM 58.1°F14.5°C 27.6°F-2.4°C 31% Calm Calm -- 29.91 in1012.9 mb - 0.00 in0.0 mm 0.00 in0.0 mm
06:00 AM 57.8°F14.3°C 27.4°F-2.6°C 31% Calm Calm -- 29.90 in1012.5 mb - 0.00 in0.0 mm 0.00 in0.0 mm
05:45 AM 57.6°F14.2°C 26.3°F-3.2°C 30% Calm Calm -- 29.89 in1012.2 mb - 0.00 in0.0 mm 0.00 in0.0 mm
05:30 AM 57.6°F14.2°C 27.1°F-2.7°C 31% Calm Calm -- 29.88 in1011.9 mb - 0.00 in0.0 mm 0.00 in0.0 mm
05:15 AM 58.6°F14.8°C 27.3°F-2.6°C 30% Calm Calm -- 29.88 in1011.9 mb - 0.00 in0.0 mm 0.00 in0.0 mm
05:00 AM 58.8°F14.9°C 26.6°F-3.0°C 29% 1.2 mph SSE1.9 kmh SSE 1.2 mph1.9 kmh 29.89 in1012.2 mb - 0.00 in0.0 mm 0.00 in0.0 mm
04:45 AM 59.9°F15.5°C 27.6°F-2.4°C 29% Calm Calm -- 29.88 in1011.9 mb - 0.00 in0.0 mm 0.00 in0.0 mm
04:30 AM 60.1°F15.6°C 28.5°F-1.9°C 30% 1.2 mph SSE1.9 kmh SSE 3.5 mph5.6 kmh 29.88 in1011.9 mb - 0.00 in0.0 mm 0.00 in0.0 mm
04:15 AM 60.6°F15.9°C 29.0°F-1.7°C 30% Calm Calm -- 29.88 in1011.9 mb - 0.00 in0.0 mm 0.00 in0.0 mm
04:00 AM 61.2°F16.2°C 27.8°F-2.3°C 28% Calm Calm -- 29.88 in1011.9 mb - 0.00 in0.0 mm 0.00 in0.0 mm
03:45 AM 62.4°F16.9°C 28.9°F-1.7°C 28% Calm Calm -- 29.88 in1011.9 mb - 0.00 in0.0 mm 0.00 in0.0 mm
03:30 AM 63.8°F17.7°C 29.1°F-1.6°C 27% Calm Calm -- 29.88 in1011.9 mb - 0.00 in0.0 mm 0.00 in0.0 mm
03:15 AM 65.6°F18.7°C 29.8°F-1.2°C 26% Calm Calm -- 29.88 in1011.9 mb - 0.00 in0.0 mm 0.00 in0.0 mm
03:00 AM 66.7°F19.3°C 27.7°F-2.4°C 23% Calm Calm -- 29.86 in1011.2 mb - 0.00 in0.0 mm 0.00 in0.0 mm
02:45 AM 66.9°F19.4°C 28.9°F-1.7°C 24% Calm Calm -- 29.87 in1011.5 mb - 0.00 in0.0 mm 0.00 in0.0 mm
02:30 AM 67.6°F19.8°C 29.5°F-1.4°C 24% Calm Calm -- 29.87 in1011.5 mb - 0.00 in0.0 mm 0.00 in0.0 mm
02:15 AM 67.9°F19.9°C 29.8°F-1.2°C 24% 1.2 mph S1.9 kmh S 3.5 mph5.6 kmh 29.87 in1011.5 mb - 0.00 in0.0 mm 0.00 in0.0 mm
02:00 AM 68.2°F20.1°C 30.0°F-1.1°C 24% Calm Calm -- 29.87 in1011.5 mb - 0.00 in0.0 mm 0.00 in0.0 mm
01:45 AM 68.7°F20.4°C 30.4°F-0.9°C 24% Calm Calm -- 29.87 in1011.5 mb - 0.00 in0.0 mm 0.00 in0.0 mm
01:30 AM 69.1°F20.6°C 29.7°F-1.3°C 23% 1.2 mph SSW1.9 kmh SSW 2.3 mph3.7 kmh 29.87 in1011.5 mb - 0.00 in0.0 mm 0.00 in0.0 mm
01:15 AM 70.2°F21.2°C 28.4°F-2.0°C 21% Calm Calm -- 29.87 in1011.5 mb - 0.00 in0.0 mm 0.00 in0.0 mm
01:00 AM 70.9°F21.6°C 26.5°F-3.1°C 19% Calm Calm 1.2 mph1.9 kmh 29.87 in1011.5 mb - 0.00 in0.0 mm 0.00 in0.0 mm
12:45 AM 71.4°F21.9°C 25.7°F-3.5°C 18% Calm Calm 3.5 mph5.6 kmh 29.87 in1011.5 mb - 0.00 in0.0 mm 0.00 in0.0 mm
12:30 AM 71.8°F22.1°C 24.6°F-4.1°C 17% Calm Calm -- 29.87 in1011.5 mb - 0.00 in0.0 mm 0.00 in0.0 mm
12:15 AM 71.4°F21.9°C 24.3°F-4.3°C 17% Calm Calm -- 29.87 in1011.5 mb - 0.00 in0.0 mm 0.00 in0.0 mm
12:00 AM 72.5°F22.5°C 23.7°F-4.6°C 16% Calm Calm 1.2 mph1.9 kmh 29.87 in1011.5 mb - 0.00 in0.0 mm 0.00 in0.0 mm